Time;durP1;ratioP1;P1;durP2;ratioP2;P2;SDS_P1;SDS_P2;PMS_P1;PMS_P2;Temp;Humidity;BMP_temperature;BMP_pressure;BME280_temperature;BME280_humidity;BME280_pressure;Samples;Min_cycle;Max_cycle;Signal;HPM_P1;HPM_P2
2022/06/01 00:01:38;;;;;;;42.63;27.55;;;;;;;15.54;82.73;99963.28;4935594;28;20047;-65
2022/06/01 00:04:03;;;;;;;47.03;27.08;;;;;;;15.55;82.65;99959.63;4915830;29;20050;-64
2022/06/01 00:06:28;;;;;;;45.08;26.35;;;;;;;15.56;82.87;99966.69;4923733;28;20038;-64
2022/06/01 00:08:53;;;;;;;36.83;23.00;;;;;;;15.55;82.65;99965.00;4920652;28;20066;-65
2022/06/01 00:11:18;;;;;;;39.38;23.60;;;;;;;15.56;82.76;99955.94;4919758;29;20054;-66
2022/06/01 00:13:43;;;;;;;39.42;22.45;;;;;;;15.55;82.58;99959.63;4921215;28;20043;-67
2022/06/01 00:16:08;;;;;;;43.08;26.27;;;;;;;15.56;82.80;99961.31;4920786;28;20043;-67
2022/06/01 00:18:34;;;;;;;41.17;24.33;;;;;;;15.58;82.50;99963.84;4920740;29;20446;-67
2022/06/01 00:20:59;;;;;;;46.85;25.98;;;;;;;15.58;82.50;99961.16;4917977;29;20058;-65
2022/06/01 00:23:24;;;;;;;42.22;25.20;;;;;;;15.60;82.63;99961.88;4933726;28;20474;-65
2022/06/01 00:25:49;;;;;;;39.50;25.95;;;;;;;15.60;82.43;99957.38;4915636;28;20051;-65
2022/06/01 00:28:14;;;;;;;46.28;26.05;;;;;;;15.61;82.55;99963.59;4918127;28;20180;-64
2022/06/01 00:30:39;;;;;;;47.53;28.10;;;;;;;15.63;82.48;99963.47;4917806;28;20403;-67
2022/06/01 00:33:04;;;;;;;40.80;26.45;;;;;;;15.63;82.39;99960.78;4917775;29;20409;-66
2022/06/01 00:35:30;;;;;;;43.72;26.88;;;;;;;15.64;82.43;99966.03;4917575;29;20054;-66
2022/06/01 00:37:54;;;;;;;40.10;24.23;;;;;;;15.64;82.47;99970.53;4917450;29;20046;-67
2022/06/01 00:40:22;;;;;;;44.50;27.83;;;;;;;15.63;82.19;99966.16;4916870;29;20051;-65
2022/06/01 00:42:49;;;;;;;44.63;27.05;;;;;;;15.64;82.51;99979.47;4899817;29;20077;-65
2022/06/01 00:45:16;;;;;;;46.42;27.80;;;;;;;15.63;82.51;99975.06;4916504;29;20075;-66
2022/06/01 00:47:41;;;;;;;46.15;27.90;;;;;;;15.64;82.31;99979.47;4916094;29;20122;-65
2022/06/01 00:50:23;;;;;;;44.53;27.73;;;;;;;15.66;82.17;99977.50;4916552;29;20138;-65
2022/06/01 00:52:54;;;;;;;42.80;27.90;;;;;;;15.70;82.46;99986.13;4932772;28;20055;-66
2022/06/01 00:55:26;;;;;;;42.28;29.25;;;;;;;15.71;82.47;99983.31;4917570;29;20050;-66
2022/06/01 00:57:56;;;;;;;47.20;28.85;;;;;;;15.70;82.04;99981.59;4927196;28;20409;-63
2022/06/01 01:00:24;;;;;;;47.53;32.00;;;;;;;15.70;82.13;99984.28;4937021;28;20528;-65
2022/06/01 01:02:52;;;;;;;47.45;29.88;;;;;;;15.70;81.83;99981.59;4946072;28;20115;-66
2022/06/01 01:05:17;;;;;;;50.72;32.35;;;;;;;15.70;82.19;99981.59;4908138;28;20050;-66
2022/06/01 01:07:42;;;;;;;52.25;32.05;;;;;;;15.70;82.00;99978.06;4911919;28;20097;-70
2022/06/01 01:10:09;;;;;;;48.17;30.95;;;;;;;15.67;81.82;99981.03;4924434;28;20050;-72
2022/06/01 01:15:19;;;;;;;50.42;30.08;;;;;;;15.65;82.14;99980.31;4924742;28;20119;-71
2022/06/01 01:17:45;;;;;;;48.72;30.30;;;;;;;15.62;81.73;99986.78;4906691;29;20152;-71
2022/06/01 01:20:10;;;;;;;48.58;32.13;;;;;;;15.62;81.80;99986.78;4927125;29;20043;-70
2022/06/01 01:22:46;;;;;;;49.45;31.23;;;;;;;15.64;81.97;99992.03;4931362;29;20097;-72
2022/06/01 01:25:29;;;;;;;51.83;32.50;;;;;;;15.66;82.11;99995.47;4931415;29;20106;-71
2022/06/01 01:27:58;;;;;;;48.78;30.38;;;;;;;15.57;82.33;99989.91;4934282;29;20043;-70
2022/06/01 01:30:35;;;;;;;48.08;30.98;;;;;;;15.57;81.92;99984.53;4942311;28;20047;-74
2022/06/01 01:33:25;;;;;;;48.10;30.67;;;;;;;15.54;82.42;99986.59;4922696;28;20066;-67
2022/06/01 01:35:53;;;;;;;51.22;32.50;;;;;;;15.42;82.46;99990.31;4932440;28;20058;-69
2022/06/01 01:38:33;;;;;;;49.38;32.42;;;;;;;15.41;82.86;99988.63;4921901;28;20162;-69
2022/06/01 01:41:03;;;;;;;53.28;33.78;;;;;;;15.30;82.46;99994.91;4931986;28;20055;-70
2022/06/01 01:43:27;;;;;;;54.45;33.28;;;;;;;15.21;82.70;99998.41;4931735;28;20066;-68
2022/06/01 01:45:52;;;;;;;53.30;32.30;;;;;;;15.17;82.90;100003.16;4924291;28;20125;-68
2022/06/01 01:48:17;;;;;;;54.30;33.25;;;;;;;15.14;83.05;100000.72;4927118;28;20067;-66
2022/06/01 01:50:42;;;;;;;54.17;33.70;;;;;;;15.14;83.32;100002.56;4924660;28;20063;-71
2022/06/01 01:53:07;;;;;;;52.38;33.80;;;;;;;15.11;83.50;100001.00;4928530;28;20036;-69
2022/06/01 01:55:37;;;;;;;50.63;31.55;;;;;;;15.13;83.63;100001.72;4935492;28;20050;-67
2022/06/01 01:58:18;;;;;;;55.08;33.53;;;;;;;15.16;83.84;100000.59;4909406;28;20039;-67
2022/06/01 02:00:51;;;;;;;47.63;30.63;;;;;;;15.10;84.05;100003.81;4909161;29;20043;-73
2022/06/01 02:03:35;;;;;;;49.90;31.60;;;;;;;15.11;84.06;99998.31;4917110;29;20035;-69
2022/06/01 02:06:14;;;;;;;51.03;31.55;;;;;;;15.06;83.93;99987.09;4919888;28;20134;-65
2022/06/01 02:08:59;;;;;;;53.97;32.78;;;;;;;15.06;83.95;99997.00;4925508;28;20075;-67
2022/06/01 02:14:24;;;;;;;54.45;27.83;;;;;;;15.16;83.69;99992.53;4926416;28;20028;-67
2022/06/01 02:16:56;;;;;;;53.58;32.15;;;;;;;15.24;84.09;99995.41;4925678;28;21157;-67
2022/06/01 02:19:26;;;;;;;56.17;32.25;;;;;;;15.35;83.79;99994.53;4912075;28;20046;-66
2022/06/01 02:21:54;;;;;;;52.35;30.63;;;;;;;15.41;83.98;99991.31;4924911;28;20043;-66
2022/06/01 02:24:23;;;;;;;52.72;30.48;;;;;;;15.50;83.60;99991.38;4914892;28;20126;-65
2022/06/01 02:26:49;;;;;;;48.22;28.60;;;;;;;15.63;83.45;99993.03;4918850;29;20498;-65
2022/06/01 02:29:18;;;;;;;45.08;29.20;;;;;;;15.80;82.90;99989.72;4919961;29;20557;-65
2022/06/01 02:31:44;;;;;;;52.60;30.70;;;;;;;15.91;82.62;99992.34;4902834;29;20393;-66
2022/06/01 02:34:10;;;;;;;47.88;29.50;;;;;;;16.05;81.96;99994.63;4902417;29;20047;-64
2022/06/01 02:36:38;;;;;;;48.13;29.30;;;;;;;16.23;81.72;99998.41;4915599;29;20491;-63
2022/06/01 02:39:07;;;;;;;46.47;28.85;;;;;;;16.39;80.90;100000.53;4909608;29;20043;-64
2022/06/01 02:44:23;;;;;;;48.25;28.35;;;;;;;16.49;79.54;99997.88;4875056;29;20080;-64
2022/06/01 02:46:48;;;;;;;45.72;29.40;;;;;;;16.51;79.22;100001.28;4880527;29;20056;-63
2022/06/01 02:49:12;;;;;;;46.42;28.17;;;;;;;16.55;79.19;100002.72;4881780;29;20048;-65
2022/06/01 02:51:37;;;;;;;44.30;28.05;;;;;;;16.65;79.08;99996.38;4886794;29;20050;-64
2022/06/01 02:54:02;;;;;;;47.10;29.17;;;;;;;16.77;78.61;100004.34;4889873;29;20395;-63
2022/06/01 02:56:28;;;;;;;44.92;27.90;;;;;;;16.88;78.21;99988.91;4903788;29;20052;-64
2022/06/01 02:58:53;;;;;;;44.95;28.08;;;;;;;17.03;77.95;99995.56;4890179;29;20534;-63
2022/06/01 03:01:17;;;;;;;42.22;28.95;;;;;;;17.17;77.20;99993.41;4887646;29;20139;-64
2022/06/01 03:03:42;;;;;;;43.20;27.33;;;;;;;17.31;76.71;99991.13;4893193;29;20900;-63
2022/06/01 03:06:08;;;;;;;40.58;27.40;;;;;;;17.48;76.37;99994.09;4871557;29;20187;-64
2022/06/01 03:08:33;;;;;;;39.75;26.67;;;;;;;17.66;75.41;100000.47;4906437;29;20066;-70
2022/06/01 03:10:58;;;;;;;44.03;28.30;;;;;;;17.85;74.76;99996.84;4918841;29;20047;-67
2022/06/01 03:13:24;;;;;;;41.40;27.52;;;;;;;18.01;74.47;100003.31;4913784;29;20048;-70
2022/06/01 03:15:51;;;;;;;46.90;27.20;;;;;;;18.14;73.35;99992.19;4885342;29;20063;-69
2022/06/01 03:18:16;;;;;;;41.33;26.63;;;;;;;18.23;72.86;100001.25;4863763;29;20048;-70
2022/06/01 03:20:41;;;;;;;42.90;26.98;;;;;;;18.29;72.73;99996.06;4871479;29;20496;-70
2022/06/01 03:23:06;;;;;;;42.78;27.70;;;;;;;18.32;72.75;99997.63;4876030;29;20040;-69
2022/06/01 03:25:31;;;;;;;43.67;28.80;;;;;;;18.34;72.78;99996.50;4899883;29;20051;-70
2022/06/01 03:27:59;;;;;;;48.90;29.50;;;;;;;18.35;72.60;100006.28;4905254;29;20130;-69
2022/06/01 03:30:25;;;;;;;46.03;30.60;;;;;;;18.36;72.37;100005.28;4918355;29;20054;-71
2022/06/01 03:32:50;;;;;;;47.00;29.88;;;;;;;18.34;72.10;100001.88;4918171;29;20494;-69
2022/06/01 03:35:18;;;;;;;44.75;30.30;;;;;;;18.32;72.11;100009.28;4913251;28;20051;-71
2022/06/01 03:37:43;;;;;;;48.35;30.65;;;;;;;18.25;72.17;100005.50;4920966;29;20039;-70
2022/06/01 03:40:09;;;;;;;43.25;30.20;;;;;;;18.14;72.25;100000.28;4921049;29;20134;-71
2022/06/01 03:42:34;;;;;;;49.97;30.85;;;;;;;18.04;72.51;100013.84;4920736;29;20122;-70
2022/06/01 03:47:43;;;;;;;44.72;31.48;;;;;;;17.97;72.81;100009.16;4917941;29;20050;-70
2022/06/01 03:50:09;;;;;;;43.00;31.30;;;;;;;17.95;72.66;100005.75;4916987;29;20047;-70
2022/06/01 03:52:34;;;;;;;44.80;30.88;;;;;;;17.92;72.86;100004.22;4918419;28;20047;-70
2022/06/01 03:54:59;;;;;;;43.45;29.45;;;;;;;17.91;73.05;100004.38;4920828;29;20053;-70
2022/06/01 03:57:23;;;;;;;44.70;31.40;;;;;;;17.94;73.53;100006.78;4934693;28;20051;-71
2022/06/01 03:59:48;;;;;;;39.35;30.05;;;;;;;17.96;73.26;100010.16;4919741;28;20596;-71
2022/06/01 04:02:13;;;;;;;42.38;29.58;;;;;;;18.00;73.49;100009.72;4922496;28;20035;-71
2022/06/01 04:04:37;;;;;;;46.88;30.65;;;;;;;18.08;73.03;99992.78;4919592;28;20043;-71
2022/06/01 04:07:03;;;;;;;42.78;29.77;;;;;;;18.14;72.82;100001.16;4917743;29;20046;-71
2022/06/01 04:09:29;;;;;;;39.85;29.48;;;;;;;18.20;72.46;99998.84;4931565;28;20506;-70
2022/06/01 04:11:55;;;;;;;43.55;30.92;;;;;;;18.28;72.46;99998.97;4922334;29;20054;-71
2022/06/01 04:14:20;;;;;;;42.20;29.10;;;;;;;18.37;71.98;99990.81;4919802;29;20047;-70
2022/06/01 04:16:46;;;;;;;42.75;29.42;;;;;;;18.49;71.82;99991.44;4918400;29;20039;-63
2022/06/01 04:19:11;;;;;;;41.70;26.90;;;;;;;18.62;71.25;99993.81;4905207;28;20055;-63
2022/06/01 04:21:37;;;;;;;41.55;29.70;;;;;;;18.77;71.10;100003.06;4905832;29;20043;-62
2022/06/01 04:24:04;;;;;;;43.83;29.85;;;;;;;18.94;70.69;99996.00;4917756;28;20556;-66
2022/06/01 04:26:28;;;;;;;37.83;27.30;;;;;;;19.16;69.71;100000.91;4932054;28;20042;-63
2022/06/01 04:28:53;;;;;;;40.67;29.15;;;;;;;19.37;68.69;100001.44;4917952;28;20094;-64
2022/06/01 04:31:18;;;;;;;48.63;31.70;;;;;;;19.61;68.39;100006.19;4917319;28;20090;-64
2022/06/01 04:33:43;;;;;;;40.83;27.88;;;;;;;19.82;67.40;100008.53;4892405;29;20039;-64
2022/06/01 04:36:08;;;;;;;39.55;28.88;;;;;;;20.03;66.99;100002.72;4877475;29;20125;-64
2022/06/01 04:38:32;;;;;;;39.35;30.02;;;;;;;20.18;66.08;100009.25;4917812;28;20417;-64
2022/06/01 04:40:57;;;;;;;39.05;29.35;;;;;;;20.37;65.79;100016.28;4899306;29;20039;-64
2022/06/01 04:43:22;;;;;;;43.97;29.40;;;;;;;20.53;64.78;100010.94;4903679;29;20150;-64
2022/06/01 04:45:50;;;;;;;39.38;28.60;;;;;;;20.71;64.42;100024.34;4899044;29;20099;-64
2022/06/01 04:48:15;;;;;;;41.47;29.95;;;;;;;20.84;64.00;100020.16;4898258;29;20047;-64
2022/06/01 04:50:42;;;;;;;38.10;28.05;;;;;;;20.96;63.68;100020.69;4926863;28;20111;-63
2022/06/01 04:53:06;;;;;;;39.78;29.40;;;;;;;21.18;62.76;100021.91;4917481;28;20050;-63
2022/06/01 04:55:31;;;;;;;37.20;28.08;;;;;;;21.36;61.53;100014.47;4917340;28;20031;-64
2022/06/01 04:57:56;;;;;;;42.58;29.23;;;;;;;21.63;61.61;100024.97;4915403;29;20215;-64
2022/06/01 05:00:22;;;;;;;37.58;27.67;;;;;;;21.96;60.67;100014.91;4927190;28;20047;-64
2022/06/01 05:02:46;;;;;;;37.05;28.13;;;;;;;22.15;59.55;100015.56;4917820;28;20043;-64
2022/06/01 05:05:11;;;;;;;37.38;27.70;;;;;;;22.33;58.92;100013.47;4912221;29;20046;-64
2022/06/01 05:07:36;;;;;;;39.42;27.27;;;;;;;22.54;58.52;100021.00;4899149;29;20109;-64
2022/06/01 05:10:01;;;;;;;36.42;27.70;;;;;;;22.79;57.79;100012.59;4899189;29;20115;-69
2022/06/01 05:12:26;;;;;;;39.85;28.30;;;;;;;23.14;56.78;100013.00;4916173;29;20052;-69
2022/06/01 05:14:51;;;;;;;31.73;24.25;;;;;;;23.34;56.04;100003.34;4902575;29;20111;-69
2022/06/01 05:17:15;;;;;;;35.53;26.73;;;;;;;23.58;55.44;100006.91;4920974;29;20094;-69
2022/06/01 05:19:40;;;;;;;35.22;24.42;;;;;;;23.81;54.64;100005.84;4933253;28;20532;-69
2022/06/01 05:22:05;;;;;;;37.03;24.92;;;;;;;23.94;54.07;100010.59;4916347;28;20125;-69
2022/06/01 05:24:29;;;;;;;33.03;22.63;;;;;;;24.22;53.57;100011.69;4917994;28;20047;-69
2022/06/01 05:26:54;;;;;;;33.25;24.83;;;;;;;24.36;52.79;100006.44;4917117;28;20061;-69
2022/06/01 05:29:19;;;;;;;36.15;24.20;;;;;;;24.37;52.92;100002.66;4917991;29;20646;-69
2022/06/01 05:31:44;;;;;;;32.17;23.10;;;;;;;24.61;52.31;99996.88;4916412;29;20051;-69
2022/06/01 05:34:10;;;;;;;30.88;23.52;;;;;;;24.93;51.90;100004.66;4917237;29;20114;-69
2022/06/01 05:36:34;;;;;;;36.38;25.02;;;;;;;25.31;50.89;99988.00;4937452;28;20058;-70
2022/06/01 05:38:59;;;;;;;31.95;23.92;;;;;;;25.70;49.94;99992.97;4933820;28;20043;-70
2022/06/01 05:41:24;;;;;;;30.63;23.15;;;;;;;26.03;48.97;99995.94;4932953;28;20466;-69
2022/06/01 05:43:51;;;;;;;31.48;23.73;;;;;;;26.33;48.30;99991.94;4915720;29;20129;-70
2022/06/01 05:46:16;;;;;;;33.85;22.98;;;;;;;26.57;47.61;99990.56;4917834;28;20097;-70
2022/06/01 05:48:41;;;;;;;29.92;21.77;;;;;;;26.79;46.82;99985.78;4932326;28;20039;-70
2022/06/01 05:51:06;;;;;;;33.15;21.88;;;;;;;27.02;46.04;99986.31;4917393;28;20418;-70
2022/06/01 05:53:31;;;;;;;29.30;22.33;;;;;;;27.41;45.02;99981.94;4916287;29;20457;-69
2022/06/01 05:55:56;;;;;;;29.60;20.67;;;;;;;27.99;43.89;99985.69;4932825;28;20146;-68
2022/06/01 05:58:25;;;;;;;33.08;24.63;;;;;;;28.67;42.52;99988.03;4916646;28;20216;-69
2022/06/01 06:00:51;;;;;;;31.90;21.15;;;;;;;29.32;41.09;99986.81;4922165;28;20085;-70
2022/06/01 06:03:18;;;;;;;29.80;21.98;;;;;;;29.83;39.54;99989.34;4937763;28;20054;-70
2022/06/01 06:08:26;;;;;;;25.45;18.05;;;;;;;31.08;37.16;99989.75;4935895;28;20486;-69
2022/06/01 06:10:51;;;;;;;24.50;19.33;;;;;;;31.62;36.06;99982.34;4920830;29;20576;-71
2022/06/01 06:13:16;;;;;;;23.02;19.27;;;;;;;32.23;34.82;99986.59;4919150;29;20070;-70
2022/06/01 06:15:41;;;;;;;24.08;17.85;;;;;;;32.77;34.03;99979.75;4920516;28;20083;-69
2022/06/01 06:18:06;;;;;;;26.88;17.73;;;;;;;33.43;32.87;99978.22;4935398;28;20124;-69
2022/06/01 06:20:31;;;;;;;23.58;17.15;;;;;;;34.08;31.44;99978.47;4935035;28;20039;-69
2022/06/01 06:22:56;;;;;;;20.95;15.98;;;;;;;34.59;30.38;99987.44;4935173;28;20045;-65
2022/06/01 06:25:21;;;;;;;22.20;15.73;;;;;;;34.99;29.81;99981.53;4934818;28;20569;-65
2022/06/01 06:27:46;;;;;;;19.02;14.80;;;;;;;35.19;29.48;99980.94;4918668;28;20671;-65
2022/06/01 06:30:11;;;;;;;18.33;15.02;;;;;;;35.27;29.18;99978.56;4918669;29;20398;-64
2022/06/01 06:32:36;;;;;;;21.25;16.08;;;;;;;35.41;28.89;99976.19;4919797;28;20127;-66
2022/06/01 06:35:00;;;;;;;18.65;16.00;;;;;;;35.67;27.93;99978.03;4918479;29;20146;-65
2022/06/01 06:37:25;;;;;;;17.95;14.77;;;;;;;36.04;27.75;99982.75;4919997;28;20043;-64
2022/06/01 06:39:50;;;;;;;21.65;15.48;;;;;;;36.46;27.27;99979.16;4918510;29;20188;-65
2022/06/01 06:42:15;;;;;;;15.77;14.13;;;;;;;36.86;26.34;99972.91;4919183;29;20134;-62
2022/06/01 06:44:40;;;;;;;18.17;14.73;;;;;;;37.14;26.37;99966.00;4919622;28;20059;-65
2022/06/01 06:47:05;;;;;;;18.77;13.90;;;;;;;37.58;25.65;99981.09;4918502;29;20046;-64
2022/06/01 06:49:30;;;;;;;17.42;14.10;;;;;;;38.05;24.98;99983.53;4902406;29;20050;-63
2022/06/01 06:51:55;;;;;;;20.42;13.93;;;;;;;38.45;24.06;99974.25;4920082;29;20047;-65
2022/06/01 06:54:20;;;;;;;24.30;14.02;;;;;;;38.80;24.09;99970.50;4919924;29;20252;-65
2022/06/01 06:56:44;;;;;;;15.43;13.07;;;;;;;39.11;23.82;99965.56;4919567;28;20528;-63
2022/06/01 06:59:12;;;;;;;21.48;14.60;;;;;;;39.42;22.82;99974.56;4934462;28;20054;-65
2022/06/01 07:01:36;;;;;;;16.75;11.73;;;;;;;39.69;22.23;99973.22;4921699;28;20159;-64
2022/06/01 07:04:01;;;;;;;13.93;10.65;;;;;;;40.06;21.64;99973.44;4921146;29;20128;-64
2022/06/01 07:06:26;;;;;;;15.70;10.57;;;;;;;40.51;21.70;99969.28;4923358;29;20042;-64
2022/06/01 07:08:53;;;;;;;12.23;9.85;;;;;;;40.90;20.74;99968.22;4934849;28;20067;-64
2022/06/01 07:11:20;;;;;;;17.00;10.90;;;;;;;41.39;20.60;99970.56;4918470;28;20483;-64
2022/06/01 07:13:46;;;;;;;15.02;10.50;;;;;;;41.97;20.06;99981.34;4919177;29;20494;-65
2022/06/01 07:16:21;;;;;;;13.70;12.18;;;;;;;42.43;19.52;99974.84;4934468;28;20047;-66
2022/06/01 07:18:51;;;;;;;14.43;9.85;;;;;;;42.67;18.74;99979.06;4918162;29;20043;-66
2022/06/01 07:21:17;;;;;;;11.93;9.27;;;;;;;42.72;19.14;99973.34;4919307;28;20070;-64
2022/06/01 07:23:43;;;;;;;12.23;8.90;;;;;;;42.99;18.18;99971.66;4919534;28;20043;-64
2022/06/01 07:26:11;;;;;;;10.63;9.10;;;;;;;43.04;17.29;99975.16;4918248;29;20126;-66
2022/06/01 07:28:36;;;;;;;11.30;9.02;;;;;;;43.25;17.46;99969.91;4919173;28;20051;-66
2022/06/01 07:31:02;;;;;;;13.35;9.48;;;;;;;43.59;17.54;99969.34;4934113;28;20138;-65
2022/06/01 07:33:29;;;;;;;11.88;7.90;;;;;;;44.04;17.23;99972.94;4919061;28;20117;-65
2022/06/01 07:35:58;;;;;;;12.27;9.20;;;;;;;44.30;16.55;99975.03;4917531;28;20569;-65
2022/06/01 07:43:54;;;;;;;12.20;11.02;;;;;;;46.76;14.95;99974.63;4919258;29;20137;-65
2022/06/01 07:46:18;;;;;;;16.48;11.32;;;;;;;47.43;14.04;99970.78;4885651;29;20063;-65
2022/06/01 07:48:44;;;;;;;12.98;11.52;;;;;;;47.63;13.44;99972.78;4918850;28;20544;-66
2022/06/01 07:51:08;;;;;;;13.05;11.73;;;;;;;48.14;13.89;99969.72;4917484;29;20046;-64
2022/06/01 07:53:33;;;;;;;14.30;13.00;;;;;;;48.52;13.40;99977.88;4933304;28;20051;-65
2022/06/01 07:55:58;;;;;;;14.07;12.88;;;;;;;48.74;12.98;99966.06;4933517;28;20485;-64
2022/06/01 07:58:23;;;;;;;14.98;13.48;;;;;;;48.48;12.71;99965.63;4917699;28;20051;-64
2022/06/01 08:00:48;;;;;;;15.85;12.75;;;;;;;47.78;13.09;99965.63;4918318;29;20043;-64
2022/06/01 08:03:17;;;;;;;12.38;11.18;;;;;;;46.18;14.05;99964.94;4916945;29;20047;-63
2022/06/01 08:05:42;;;;;;;13.40;12.15;;;;;;;44.28;14.67;99950.06;4916807;28;20069;-64
2022/06/01 08:08:07;;;;;;;9.85;8.85;;;;;;;43.13;15.95;99952.78;4918051;28;20055;-64
2022/06/01 08:10:32;;;;;;;12.13;9.45;;;;;;;42.45;16.92;99948.13;4916783;28;20066;-63
2022/06/01 08:13:09;;;;;;;10.82;8.68;;;;;;;41.96;17.39;99955.31;4918000;28;20054;-64
2022/06/01 08:15:45;;;;;;;11.85;9.30;;;;;;;41.72;17.37;99962.16;4918473;28;20547;-65
2022/06/01 08:18:12;;;;;;;9.32;7.47;;;;;;;41.02;17.41;99960.19;4918552;28;20043;-64
2022/06/01 08:20:38;;;;;;;7.68;7.00;;;;;;;40.41;17.49;99954.63;4916985;29;20043;-64
2022/06/01 08:23:04;;;;;;;12.65;8.23;;;;;;;40.06;17.46;99955.84;4932936;28;20048;-64
2022/06/01 08:25:30;;;;;;;7.47;6.57;;;;;;;40.01;17.93;99953.09;4933021;28;20502;-63
2022/06/01 08:27:55;;;;;;;8.27;6.70;;;;;;;40.42;17.80;99943.13;4916816;29;20057;-65
2022/06/01 08:30:23;;;;;;;10.65;7.13;;;;;;;41.02;17.30;99957.41;4917973;28;20090;-64
2022/06/01 08:32:48;;;;;;;11.15;6.55;;;;;;;41.69;16.84;99958.00;4916643;28;20101;-63
2022/06/01 08:35:14;;;;;;;8.32;6.78;;;;;;;42.32;16.36;99957.38;4900595;29;20043;-63
2022/06/01 08:37:39;;;;;;;8.30;7.35;;;;;;;42.59;16.03;99957.38;4916441;28;20047;-64
2022/06/01 08:40:05;;;;;;;10.05;7.93;;;;;;;42.51;15.49;99962.91;4916889;28;20039;-65
2022/06/01 08:42:32;;;;;;;7.78;6.95;;;;;;;42.39;14.96;99950.25;4916751;28;20507;-63
2022/06/01 08:45:03;;;;;;;8.75;7.45;;;;;;;42.02;15.36;99944.81;4918183;29;20278;-67
2022/06/01 08:47:38;;;;;;;7.85;7.05;;;;;;;41.48;16.49;99951.09;4916657;28;20486;-66
2022/06/01 08:50:08;;;;;;;7.80;6.53;;;;;;;41.24;16.27;99952.03;4917911;28;20035;-64
2022/06/01 08:52:32;;;;;;;9.18;7.13;;;;;;;41.18;15.89;99944.88;4917735;28;20050;-65
2022/06/01 08:54:57;;;;;;;14.00;7.20;;;;;;;41.61;15.82;99948.34;4916485;28;20047;-67
2022/06/01 08:57:24;;;;;;;11.27;7.18;;;;;;;41.86;15.35;99955.47;4917827;28;20047;-65
2022/06/01 09:00:04;;;;;;;9.82;7.05;;;;;;;41.14;15.68;99949.41;4918327;29;20054;-65
2022/06/01 09:02:38;;;;;;;7.05;6.35;;;;;;;39.68;16.78;99952.84;4918352;28;20134;-65
2022/06/01 09:05:16;;;;;;;6.28;5.72;;;;;;;38.18;18.30;99936.75;4918323;28;20135;-65
2022/06/01 09:08:04;;;;;;;7.25;5.75;;;;;;;37.30;18.99;99934.34;4918043;28;20070;-65
2022/06/01 09:10:34;;;;;;;8.23;5.53;;;;;;;36.34;20.33;99937.72;4932118;28;20571;-65
2022/06/01 09:13:03;;;;;;;7.03;5.78;;;;;;;36.15;20.03;99931.75;4917633;28;20051;-64
2022/06/01 09:15:31;;;;;;;10.60;6.45;;;;;;;35.57;21.03;99933.59;4916224;29;20127;-65
2022/06/01 09:17:56;;;;;;;7.22;5.60;;;;;;;34.68;21.37;99924.97;4917026;29;20522;-65
2022/06/01 09:23:15;;;;;;;8.25;4.95;;;;;;;33.43;22.76;99931.22;4920638;29;20104;-67
2022/06/01 09:25:50;;;;;;;7.97;4.47;;;;;;;32.84;22.93;99925.22;4933482;28;20090;-64
2022/06/01 09:28:25;;;;;;;7.25;5.05;;;;;;;32.56;23.68;99923.25;4919798;28;20134;-68
2022/06/01 09:30:54;;;;;;;8.52;4.80;;;;;;;32.68;23.78;99924.06;4932349;28;20047;-65
2022/06/01 09:33:26;;;;;;;8.52;4.88;;;;;;;34.09;22.04;99933.06;4916058;28;20083;-66
2022/06/01 09:36:06;;;;;;;5.82;4.45;;;;;;;36.24;19.72;99926.53;4920976;28;20469;-65
2022/06/01 09:38:51;;;;;;;8.52;5.80;;;;;;;38.95;18.05;99929.66;4921046;28;20059;-65
2022/06/01 09:41:38;;;;;;;8.18;5.70;;;;;;;41.32;16.67;99945.75;4921025;29;20047;-65
2022/06/01 09:44:06;;;;;;;8.07;6.00;;;;;;;43.23;14.32;99946.13;4920535;28;20039;-64
2022/06/01 09:46:35;;;;;;;10.90;7.43;;;;;;;45.23;13.32;99941.81;4935640;28;20098;-65
2022/06/01 09:49:25;;;;;;;11.07;8.75;;;;;;;46.23;12.03;99947.84;4919609;28;20066;-65
2022/06/01 09:51:57;;;;;;;13.00;9.05;;;;;;;46.18;12.11;99962.13;4919627;28;20051;-66
2022/06/01 09:54:22;;;;;;;10.98;8.85;;;;;;;46.82;11.80;99944.22;4935796;28;20103;-66
2022/06/01 09:56:48;;;;;;;12.82;11.63;;;;;;;47.88;11.32;99951.03;4920873;28;20051;-64
2022/06/01 10:08:08;;;;;;;18.77;17.15;;;;;;;50.48;9.21;99945.44;4936696;28;20141;-66
2022/06/01 10:10:33;;;;;;;20.08;18.30;;;;;;;48.79;9.82;99931.81;4938995;28;20055;-64
2022/06/01 10:13:01;;;;;;;16.08;14.60;;;;;;;47.72;10.11;99932.28;4923321;28;20066;-64
2022/06/01 10:15:51;;;;;;;15.07;14.00;;;;;;;47.68;11.23;99935.78;4938576;28;20050;-65
2022/06/01 10:18:27;;;;;;;14.07;12.98;;;;;;;46.62;11.50;99931.69;4920429;28;20057;-64
2022/06/01 10:21:08;;;;;;;12.63;11.35;;;;;;;44.83;12.38;99919.44;4920644;29;20948;-64
2022/06/01 10:23:48;;;;;;;10.25;8.32;;;;;;;41.77;13.85;99929.28;4919059;29;20600;-64
2022/06/01 10:26:36;;;;;;;8.73;6.78;;;;;;;39.72;15.63;99906.47;4920237;28;20575;-64
2022/06/01 10:29:06;;;;;;;7.60;6.78;;;;;;;37.51;17.60;99896.22;4925687;29;20553;-65
2022/06/01 10:31:48;;;;;;;11.48;7.57;;;;;;;35.64;19.62;99906.47;4920472;28;20057;-65
2022/06/01 10:34:15;;;;;;;9.43;6.00;;;;;;;33.91;21.60;99899.34;4903124;29;20047;-64
2022/06/01 10:36:40;;;;;;;7.10;5.82;;;;;;;32.78;22.71;99899.44;4918999;28;20401;-65
2022/06/01 10:39:14;;;;;;;8.85;6.18;;;;;;;32.04;23.69;99892.09;4919522;28;20426;-65
2022/06/01 10:42:10;;;;;;;10.68;6.55;;;;;;;31.59;24.76;99883.63;4918491;28;20405;-66
2022/06/01 10:45:01;;;;;;;9.93;6.05;;;;;;;31.19;25.61;99900.00;4916318;28;20553;-66
2022/06/01 10:47:54;;;;;;;9.60;6.70;;;;;;;30.81;26.89;99912.25;4914933;29;20043;-66
2022/06/01 10:50:22;;;;;;;8.50;4.50;;;;;;;30.22;27.58;99900.09;4918752;29;20074;-68
2022/06/01 10:53:14;;;;;;;10.65;5.10;;;;;;;29.88;28.28;99900.69;4902464;29;20123;-71
2022/06/01 10:55:42;;;;;;;10.25;4.80;;;;;;;29.49;29.06;99900.03;4919837;28;20134;-70
2022/06/01 10:58:09;;;;;;;9.55;5.15;;;;;;;29.07;30.03;99907.16;4918298;28;20490;-71
2022/06/01 11:00:59;;;;;;;10.57;5.18;;;;;;;29.26;30.11;99910.78;4919992;28;20085;-71
2022/06/01 11:03:58;;;;;;;7.63;5.78;;;;;;;28.64;31.66;99914.38;4939241;28;20050;-71
2022/06/01 11:06:45;;;;;;;9.23;6.32;;;;;;;27.98;33.28;99898.22;4955571;28;20047;-72
2022/06/01 11:09:17;;;;;;;7.53;5.72;;;;;;;27.53;34.50;99903.56;4955417;28;20503;-69
2022/06/01 11:11:54;;;;;;;11.55;6.07;;;;;;;27.32;35.28;99907.34;4955490;28;20149;-72
2022/06/01 11:14:35;;;;;;;11.50;6.00;;;;;;;27.15;35.70;99908.00;4955685;28;20121;-70
2022/06/01 11:17:06;;;;;;;8.73;5.25;;;;;;;27.07;35.77;99909.91;4955469;28;20093;-70
2022/06/01 11:19:56;;;;;;;15.13;6.00;;;;;;;27.02;36.10;99906.09;4955518;28;20050;-70
2022/06/01 11:22:48;;;;;;;9.73;5.55;;;;;;;26.79;36.57;99913.81;4937506;28;20500;-72
2022/06/01 11:25:36;;;;;;;7.95;4.97;;;;;;;26.55;36.95;99909.75;4931178;28;20165;-72
2022/06/01 11:28:27;;;;;;;7.18;4.05;;;;;;;26.21;37.33;99916.97;4937584;28;20112;-74
2022/06/01 11:31:27;;;;;;;6.45;3.85;;;;;;;26.02;37.46;99925.94;4937177;28;20153;-72
2022/06/01 11:34:14;;;;;;;4.93;4.38;;;;;;;25.87;38.70;99919.75;4931056;28;20063;-73
2022/06/01 11:37:02;;;;;;;7.30;4.20;;;;;;;25.50;39.54;99916.34;4952284;28;20049;-72
2022/06/01 11:39:40;;;;;;;9.63;4.10;;;;;;;25.12;40.93;99917.72;4939589;28;20089;-71
2022/06/01 11:42:22;;;;;;;7.10;4.30;;;;;;;25.16;40.83;99913.56;4928584;28;20531;-74
2022/06/01 11:44:59;;;;;;;9.25;4.70;;;;;;;25.09;41.06;99918.94;4917657;28;20043;-74
2022/06/01 11:47:30;;;;;;;10.70;4.30;;;;;;;24.98;41.55;99910.44;4907403;29;20047;-74
2022/06/01 11:50:17;;;;;;;5.13;3.90;;;;;;;25.20;41.00;99914.84;4918170;28;20073;-67
2022/06/01 11:52:51;;;;;;;5.45;4.25;;;;;;;25.29;41.21;99917.22;4914769;28;20114;-66
2022/06/01 11:55:15;;;;;;;8.13;4.47;;;;;;;24.99;42.38;99915.72;4921368;28;20051;-66
2022/06/01 11:57:54;;;;;;;9.10;4.43;;;;;;;24.98;42.39;99921.38;4934119;28;20039;-65
2022/06/01 12:00:19;;;;;;;7.03;4.43;;;;;;;24.73;43.23;99924.44;4922518;28;20047;-66